Time;durP1;ratioP1;P1;durP2;ratioP2;P2;SDS_P1;SDS_P2;PMS_P1;PMS_P2;Temp;Humidity;BMP_temperature;BMP_pressure;BME280_temperature;BME280_humidity;BME280_pressure;Samples;Min_cycle;Max_cycle;Signal;HPM_P1;HPM_P2
2022/09/14 00:02:21;;;;;;;0.00;0.00;;;;;;;17.25;100.00;95844.59;5056266;28;20075;-76
2022/09/14 00:04:47;;;;;;;0.08;0.00;;;;;;;17.33;100.00;95853.06;5053917;28;20040;-77
2022/09/14 00:07:12;;;;;;;0.00;0.00;;;;;;;17.33;100.00;95848.47;5057024;28;20958;-77
2022/09/14 00:09:38;;;;;;;0.10;0.10;;;;;;;17.36;100.00;95838.97;5055928;28;20056;-77
2022/09/14 00:12:04;;;;;;;0.10;0.10;;;;;;;17.37;100.00;95844.06;5056290;28;20067;-76
2022/09/14 00:14:29;;;;;;;0.00;0.00;;;;;;;17.48;100.00;95831.88;5059148;28;20033;-77
2022/09/14 00:16:55;;;;;;;0.00;0.00;;;;;;;17.51;100.00;95838.59;5056765;28;20040;-77
2022/09/14 00:19:23;;;;;;;0.00;0.00;;;;;;;17.49;100.00;95828.06;5056233;28;20459;-77
2022/09/14 00:21:55;;;;;;;0.00;0.00;;;;;;;17.39;100.00;95817.50;5058431;28;20472;-77
2022/09/14 00:24:22;;;;;;;0.00;0.00;;;;;;;17.43;100.00;95828.50;5039621;28;20032;-77
2022/09/14 00:26:49;;;;;;;0.00;0.00;;;;;;;17.45;100.00;95818.97;5026225;28;20078;-76
2022/09/14 00:29:15;;;;;;;0.00;0.00;;;;;;;17.47;100.00;95814.06;5040022;28;20468;-77
2022/09/14 00:31:40;;;;;;;0.00;0.00;;;;;;;17.50;100.00;95809.94;5054653;28;20367;-77
2022/09/14 00:34:08;;;;;;;0.00;0.00;;;;;;;17.50;100.00;95799.91;5040118;28;20123;-77
2022/09/14 00:36:38;;;;;;;0.10;0.00;;;;;;;17.44;100.00;95808.47;5055599;28;20044;-77
2022/09/14 00:39:04;;;;;;;0.00;0.00;;;;;;;17.31;100.00;95804.72;5055659;28;20071;-77
2022/09/14 00:41:33;;;;;;;0.00;0.00;;;;;;;17.39;100.00;95785.06;5057400;28;20597;-77
2022/09/14 00:44:03;;;;;;;0.00;0.00;;;;;;;17.28;100.00;95794.53;5056195;28;21042;-77
2022/09/14 00:46:34;;;;;;;0.00;0.00;;;;;;;17.21;100.00;95794.94;5038352;28;20051;-77
2022/09/14 00:49:01;;;;;;;0.00;0.00;;;;;;;17.06;100.00;95789.09;5039766;28;20264;-77
2022/09/14 00:51:30;;;;;;;0.00;0.00;;;;;;;16.98;100.00;95777.09;5050791;28;20191;-76
2022/09/14 00:53:56;;;;;;;0.00;0.00;;;;;;;16.88;100.00;95764.59;5056464;28;20033;-77
2022/09/14 00:56:21;;;;;;;0.00;0.00;;;;;;;17.01;100.00;95762.19;5037842;28;20051;-76
2022/09/14 00:58:52;;;;;;;0.00;0.00;;;;;;;17.07;100.00;95766.38;5054905;28;20040;-77
2022/09/14 01:01:18;;;;;;;0.00;0.00;;;;;;;17.12;100.00;95763.53;5035335;28;20106;-77
2022/09/14 01:03:44;;;;;;;0.08;0.00;;;;;;;17.14;100.00;95762.13;5057283;28;20063;-76
2022/09/14 01:06:27;;;;;;;0.10;0.10;;;;;;;17.07;100.00;95758.25;5037501;28;20036;-77
2022/09/14 01:09:08;;;;;;;0.00;0.00;;;;;;;16.93;100.00;95764.50;5061545;28;20032;-76
2022/09/14 01:11:58;;;;;;;0.00;0.00;;;;;;;16.80;100.00;95768.03;5025526;28;20512;-76
2022/09/14 01:14:27;;;;;;;0.10;0.10;;;;;;;16.62;100.00;95769.75;5058011;28;20039;-77
2022/09/14 01:16:59;;;;;;;0.00;0.00;;;;;;;16.54;100.00;95778.56;5062720;28;20033;-77
2022/09/14 01:19:43;;;;;;;0.00;0.00;;;;;;;16.37;100.00;95797.28;5061314;28;20159;-77
2022/09/14 01:22:15;;;;;;;0.08;0.08;;;;;;;16.31;100.00;95793.09;5059829;28;20025;-77
2022/09/14 01:24:49;;;;;;;0.08;0.00;;;;;;;16.27;100.00;95811.00;5060721;28;20058;-77
2022/09/14 01:27:46;;;;;;;0.00;0.00;;;;;;;16.35;100.00;95800.31;5038323;28;20094;-77
2022/09/14 01:30:19;;;;;;;0.00;0.00;;;;;;;16.24;100.00;95796.19;5052927;28;20052;-77
2022/09/14 01:33:18;;;;;;;0.00;0.00;;;;;;;16.10;100.00;95798.88;5059864;28;20138;-76
2022/09/14 01:35:50;;;;;;;0.00;0.00;;;;;;;16.17;100.00;95809.28;5056876;28;20682;-76
2022/09/14 01:38:25;;;;;;;0.00;0.00;;;;;;;16.22;100.00;95816.50;5057936;28;20557;-76
2022/09/14 01:40:55;;;;;;;0.10;0.10;;;;;;;16.37;100.00;95811.59;5058519;28;20076;-76
2022/09/14 01:43:43;;;;;;;0.05;0.00;;;;;;;16.54;100.00;95804.78;5059088;28;20390;-76
2022/09/14 01:47:04;;;;;;;0.00;0.00;;;;;;;16.44;100.00;95803.91;5058322;28;20035;-76
2022/09/14 01:49:36;;;;;;;0.00;0.00;;;;;;;16.50;100.00;95795.66;4996393;28;20079;-76
2022/09/14 01:52:50;;;;;;;0.00;0.00;;;;;;;16.36;100.00;95790.31;5060790;28;20044;-76
2022/09/14 01:55:21;;;;;;;0.00;0.00;;;;;;;16.27;100.00;95792.91;5032962;28;20115;-76
2022/09/14 01:57:53;;;;;;;0.00;0.00;;;;;;;16.23;100.00;95805.41;5061805;28;20036;-76
2022/09/14 02:00:20;;;;;;;0.10;0.10;;;;;;;16.23;100.00;95810.78;5057222;28;20036;-76
2022/09/14 02:02:52;;;;;;;0.00;0.00;;;;;;;16.31;100.00;95798.50;5041988;28;20029;-76
2022/09/14 02:05:40;;;;;;;0.00;0.00;;;;;;;16.34;100.00;95800.59;5055321;28;20083;-76
2022/09/14 02:08:05;;;;;;;0.00;0.00;;;;;;;16.46;100.00;95798.19;5042020;28;20055;-76
2022/09/14 02:10:32;;;;;;;0.03;0.03;;;;;;;16.59;100.00;95788.47;5049468;28;20036;-76
2022/09/14 02:13:00;;;;;;;0.00;0.00;;;;;;;16.75;100.00;95786.28;5024360;28;20032;-76
2022/09/14 02:15:26;;;;;;;0.00;0.00;;;;;;;16.87;100.00;95783.84;5036742;28;20039;-76
2022/09/14 02:17:53;;;;;;;0.08;0.03;;;;;;;17.01;100.00;95768.38;5011050;28;20028;-76
2022/09/14 02:20:32;;;;;;;0.00;0.00;;;;;;;17.01;100.00;95773.78;5021096;28;20555;-76
2022/09/14 02:22:57;;;;;;;0.00;0.00;;;;;;;17.10;100.00;95769.25;5041874;28;20033;-76
2022/09/14 02:25:23;;;;;;;0.00;0.00;;;;;;;17.17;100.00;95755.31;5036270;28;20406;-76
2022/09/14 02:27:49;;;;;;;0.05;0.05;;;;;;;17.04;100.00;95753.44;5041775;28;20103;-76
2022/09/14 02:30:16;;;;;;;0.00;0.00;;;;;;;17.03;100.00;95749.94;5020485;28;20044;-76
2022/09/14 02:33:19;;;;;;;0.00;0.00;;;;;;;17.12;100.00;95752.72;5040210;28;20037;-76
2022/09/14 02:35:50;;;;;;;0.00;0.00;;;;;;;17.19;100.00;95747.69;5035959;28;20376;-76
2022/09/14 02:38:28;;;;;;;0.03;0.00;;;;;;;17.19;100.00;95731.47;5006347;28;20055;-76
2022/09/14 02:41:16;;;;;;;0.00;0.00;;;;;;;17.17;100.00;95737.19;5037248;28;20112;-76
2022/09/14 02:44:08;;;;;;;0.00;0.00;;;;;;;17.20;100.00;95731.19;5007394;28;21255;-76
2022/09/14 02:46:46;;;;;;;0.00;0.00;;;;;;;17.03;100.00;95722.91;5027317;28;20047;-76
2022/09/14 02:49:21;;;;;;;0.00;0.00;;;;;;;17.10;100.00;95723.28;5019448;28;20490;-76
2022/09/14 02:52:15;;;;;;;0.00;0.00;;;;;;;16.96;100.00;95711.75;5005583;28;20048;-76
2022/09/14 02:55:04;;;;;;;0.00;0.00;;;;;;;17.03;100.00;95708.63;5039565;28;20457;-76
2022/09/14 02:57:30;;;;;;;0.00;0.00;;;;;;;17.03;100.00;95704.00;5037247;28;20047;-76
2022/09/14 02:59:55;;;;;;;0.00;0.00;;;;;;;16.99;100.00;95697.63;5020661;28;20036;-76
2022/09/14 03:02:21;;;;;;;0.00;0.00;;;;;;;16.92;100.00;95692.66;5039904;28;20045;-76
2022/09/14 03:04:47;;;;;;;0.00;0.00;;;;;;;16.73;100.00;95700.16;5037523;28;20546;-76
2022/09/14 03:07:12;;;;;;;0.00;0.00;;;;;;;16.72;100.00;95703.94;5037930;28;20084;-76
2022/09/14 03:09:38;;;;;;;0.00;0.00;;;;;;;16.74;100.00;95703.66;5038685;28;20053;-76
2022/09/14 03:12:03;;;;;;;0.00;0.00;;;;;;;16.70;100.00;95698.84;5059257;28;20039;-76
2022/09/14 03:14:29;;;;;;;0.00;0.00;;;;;;;16.73;100.00;95705.56;5058786;28;20051;-77
2022/09/14 03:16:54;;;;;;;0.00;0.00;;;;;;;16.74;100.00;95706.34;5015044;28;20046;-76
2022/09/14 03:19:22;;;;;;;0.10;0.10;;;;;;;16.70;100.00;95706.16;5025115;28;20029;-76
2022/09/14 03:21:47;;;;;;;0.00;0.00;;;;;;;16.77;100.00;95697.63;5038473;28;20068;-76
2022/09/14 03:24:13;;;;;;;0.00;0.00;;;;;;;16.67;100.00;95701.34;5057292;28;20036;-76
2022/09/14 03:26:38;;;;;;;0.00;0.00;;;;;;;16.64;100.00;95704.63;5056440;28;20467;-77
2022/09/14 03:29:05;;;;;;;0.00;0.00;;;;;;;16.61;100.00;95702.53;5058063;28;20028;-76
2022/09/14 03:31:31;;;;;;;0.05;0.00;;;;;;;16.71;100.00;95699.63;5054074;28;20060;-76
2022/09/14 03:33:58;;;;;;;0.00;0.00;;;;;;;16.69;100.00;95697.25;5057875;28;20120;-76
2022/09/14 03:36:26;;;;;;;0.00;0.00;;;;;;;16.69;100.00;95691.03;5055745;28;20047;-77
2022/09/14 03:38:55;;;;;;;0.05;0.05;;;;;;;16.61;100.00;95689.03;5053776;28;20145;-76
2022/09/14 03:41:22;;;;;;;0.00;0.00;;;;;;;16.66;100.00;95692.44;5057236;28;20119;-76
2022/09/14 03:43:49;;;;;;;0.00;0.00;;;;;;;16.63;100.00;95686.81;5023241;28;20345;-76
2022/09/14 03:46:16;;;;;;;0.10;0.10;;;;;;;16.55;100.00;95695.66;5054867;28;20033;-76
2022/09/14 03:48:44;;;;;;;0.10;0.10;;;;;;;16.60;100.00;95687.44;5039594;28;20028;-76
2022/09/14 03:51:11;;;;;;;0.10;0.10;;;;;;;16.50;100.00;95685.78;5038384;28;20430;-75
2022/09/14 03:53:40;;;;;;;0.00;0.00;;;;;;;16.47;100.00;95683.66;5056660;28;20442;-76
2022/09/14 03:56:15;;;;;;;0.08;0.08;;;;;;;16.45;100.00;95685.88;5055492;28;20044;-76
2022/09/14 03:58:42;;;;;;;0.00;0.00;;;;;;;16.37;100.00;95684.69;5040020;28;20045;-76
2022/09/14 04:01:14;;;;;;;0.00;0.00;;;;;;;16.32;100.00;95679.41;5035185;28;20132;-76
2022/09/14 04:03:40;;;;;;;0.00;0.00;;;;;;;16.24;100.00;95682.81;5041316;28;20481;-76
2022/09/14 04:06:07;;;;;;;0.03;0.03;;;;;;;16.30;100.00;95673.53;5057446;28;20037;-76
2022/09/14 04:08:38;;;;;;;0.00;0.00;;;;;;;16.26;100.00;95688.72;5057541;28;20035;-76
2022/09/14 04:11:16;;;;;;;0.10;0.10;;;;;;;16.30;100.00;95678.91;5039382;28;20091;-77
2022/09/14 04:13:43;;;;;;;0.10;0.00;;;;;;;16.25;100.00;95681.72;5057282;28;20344;-76
2022/09/14 04:16:08;;;;;;;0.00;0.00;;;;;;;16.24;100.00;95672.03;5056874;28;20052;-76
2022/09/14 04:18:34;;;;;;;0.00;0.00;;;;;;;16.26;100.00;95675.22;5056179;28;20036;-76
2022/09/14 04:21:05;;;;;;;0.00;0.00;;;;;;;16.29;100.00;95681.94;5056168;28;20105;-76
2022/09/14 04:23:31;;;;;;;0.00;0.00;;;;;;;16.37;100.00;95675.81;5055549;28;20039;-76
2022/09/14 04:25:57;;;;;;;0.00;0.00;;;;;;;16.50;100.00;95668.75;5058893;28;20040;-77
2022/09/14 04:28:24;;;;;;;0.10;0.10;;;;;;;16.53;100.00;95668.97;5055977;28;22278;-77
2022/09/14 04:31:01;;;;;;;0.00;0.00;;;;;;;16.57;100.00;95669.13;5054906;28;20033;-77
2022/09/14 04:33:32;;;;;;;0.00;0.00;;;;;;;16.61;100.00;95667.44;5037705;28;20029;-77
2022/09/14 04:36:01;;;;;;;0.10;0.10;;;;;;;16.50;100.00;95666.88;5046314;28;20523;-76
2022/09/14 04:38:28;;;;;;;0.00;0.00;;;;;;;16.49;100.00;95676.06;5053402;28;20111;-76
2022/09/14 04:40:54;;;;;;;0.03;0.03;;;;;;;16.41;100.00;95666.78;5056985;28;20041;-76
2022/09/14 04:43:20;;;;;;;0.00;0.00;;;;;;;16.42;100.00;95667.59;5060461;28;20063;-76
2022/09/14 04:45:45;;;;;;;0.00;0.00;;;;;;;16.32;100.00;95662.41;5059285;28;20139;-76
2022/09/14 04:48:11;;;;;;;0.03;0.03;;;;;;;16.23;100.00;95667.72;5045079;28;20033;-77
2022/09/14 04:50:36;;;;;;;0.00;0.00;;;;;;;16.20;100.00;95664.84;5062552;28;20395;-77
2022/09/14 04:53:02;;;;;;;0.00;0.00;;;;;;;16.18;100.00;95662.44;5064131;28;20171;-77
2022/09/14 04:55:27;;;;;;;0.05;0.05;;;;;;;16.10;100.00;95658.56;5042133;28;20029;-77
2022/09/14 04:57:53;;;;;;;0.10;0.10;;;;;;;16.15;100.00;95663.84;5061905;28;20392;-76
2022/09/14 05:00:19;;;;;;;0.00;0.00;;;;;;;16.08;100.00;95649.97;5059798;28;20047;-76
2022/09/14 05:02:45;;;;;;;0.00;0.00;;;;;;;16.11;100.00;95654.78;5060268;28;20043;-76
2022/09/14 05:05:11;;;;;;;0.10;0.10;;;;;;;16.14;100.00;95654.16;5047819;28;20032;-76
2022/09/14 05:07:36;;;;;;;0.00;0.00;;;;;;;16.23;100.00;95654.25;5063694;28;20032;-76
2022/09/14 05:10:03;;;;;;;0.00;0.00;;;;;;;16.34;100.00;95652.94;5060794;28;20052;-76
2022/09/14 05:12:28;;;;;;;0.00;0.00;;;;;;;16.39;100.00;95652.00;5059318;28;20467;-76
2022/09/14 05:14:54;;;;;;;0.10;0.10;;;;;;;16.35;100.00;95654.53;5060815;28;20087;-76
2022/09/14 05:17:20;;;;;;;0.00;0.00;;;;;;;16.37;100.00;95657.72;5057040;28;20106;-76
2022/09/14 05:19:45;;;;;;;0.00;0.00;;;;;;;16.37;100.00;95655.00;5058087;28;20173;-76
2022/09/14 05:22:11;;;;;;;0.00;0.00;;;;;;;16.40;100.00;95657.09;5059477;28;20102;-76
2022/09/14 05:24:36;;;;;;;0.00;0.00;;;;;;;16.48;100.00;95649.38;5059517;28;20137;-76
2022/09/14 05:27:02;;;;;;;0.00;0.00;;;;;;;16.49;100.00;95635.56;5042224;28;20025;-77
2022/09/14 05:29:28;;;;;;;0.00;0.00;;;;;;;16.46;100.00;95638.09;5059349;28;20525;-76
2022/09/14 05:31:54;;;;;;;0.00;0.00;;;;;;;16.51;100.00;95633.38;5045542;28;20339;-77
2022/09/14 05:34:19;;;;;;;0.03;0.03;;;;;;;16.59;100.00;95631.84;5047511;28;20072;-77
2022/09/14 05:36:45;;;;;;;0.00;0.00;;;;;;;16.55;100.00;95625.44;5042940;28;20078;-77
2022/09/14 05:39:11;;;;;;;0.00;0.00;;;;;;;16.44;100.00;95624.91;5022226;28;20447;-75
2022/09/14 05:41:37;;;;;;;0.10;0.10;;;;;;;16.34;100.00;95623.22;5056412;28;20300;-75
2022/09/14 05:44:08;;;;;;;0.00;0.00;;;;;;;16.30;100.00;95630.31;5042462;28;20522;-76
2022/09/14 05:46:33;;;;;;;0.00;0.00;;;;;;;16.24;100.00;95626.13;5055853;28;20144;-77
2022/09/14 05:48:59;;;;;;;0.00;0.00;;;;;;;16.33;100.00;95635.09;5058607;28;20511;-76
2022/09/14 05:51:26;;;;;;;0.10;0.10;;;;;;;16.39;100.00;95636.59;5055869;28;20438;-76
2022/09/14 05:53:56;;;;;;;0.10;0.10;;;;;;;16.43;100.00;95628.69;5057959;28;20045;-77
2022/09/14 05:56:25;;;;;;;0.10;0.03;;;;;;;16.54;100.00;95626.56;5060083;28;20033;-78
2022/09/14 05:58:51;;;;;;;0.00;0.00;;;;;;;16.55;100.00;95630.84;5058457;28;20029;-78
2022/09/14 06:01:19;;;;;;;0.00;0.00;;;;;;;16.58;100.00;95622.94;5058500;28;20061;-76
2022/09/14 06:03:46;;;;;;;0.00;0.00;;;;;;;16.65;100.00;95620.63;5056331;28;20127;-77
2022/09/14 06:06:15;;;;;;;0.05;0.05;;;;;;;16.73;100.00;95624.50;5058796;28;20449;-77
2022/09/14 06:08:41;;;;;;;0.03;0.00;;;;;;;16.82;100.00;95619.16;5057869;28;20029;-77
2022/09/14 06:11:13;;;;;;;0.00;0.00;;;;;;;16.78;100.00;95624.38;4992749;28;1147746;-77
2022/09/14 06:13:39;;;;;;;0.00;0.00;;;;;;;16.80;100.00;95618.66;5058256;28;20033;-76
2022/09/14 06:16:10;;;;;;;0.00;0.00;;;;;;;16.76;100.00;95620.38;5043356;28;20457;-75
2022/09/14 06:18:36;;;;;;;0.10;0.10;;;;;;;16.63;100.00;95616.59;5059674;28;20506;-75
2022/09/14 06:21:03;;;;;;;0.10;0.10;;;;;;;16.69;100.00;95610.81;5057345;28;20036;-75
2022/09/14 06:23:31;;;;;;;0.00;0.00;;;;;;;16.74;100.00;95609.91;5029190;28;20029;-76
2022/09/14 06:26:02;;;;;;;0.00;0.00;;;;;;;16.66;100.00;95608.69;5042415;28;20388;-75
2022/09/14 06:28:28;;;;;;;0.00;0.00;;;;;;;16.70;100.00;95614.31;5048035;28;20025;-76
2022/09/14 06:30:55;;;;;;;0.00;0.00;;;;;;;16.72;100.00;95614.78;5043319;28;20024;-75
2022/09/14 06:33:20;;;;;;;0.00;0.00;;;;;;;16.81;100.00;95612.97;5059357;28;20055;-75
2022/09/14 06:36:08;;;;;;;0.00;0.00;;;;;;;16.60;100.00;95614.53;5060934;28;20045;-75
2022/09/14 06:38:34;;;;;;;0.00;0.00;;;;;;;16.61;100.00;95610.72;5030088;28;20036;-76
2022/09/14 06:41:03;;;;;;;0.00;0.00;;;;;;;16.58;100.00;95614.03;5058929;28;20043;-75
2022/09/14 06:43:31;;;;;;;0.00;0.00;;;;;;;16.64;100.00;95618.19;5023318;28;20503;-75
2022/09/14 06:46:09;;;;;;;0.00;0.00;;;;;;;16.69;100.00;95612.72;5041522;28;20060;-76
2022/09/14 06:48:40;;;;;;;0.00;0.00;;;;;;;16.60;100.00;95609.94;5059140;28;20068;-76
2022/09/14 06:51:36;;;;;;;0.00;0.00;;;;;;;16.65;100.00;95604.41;5059148;28;20036;-76
2022/09/14 06:54:03;;;;;;;0.00;0.00;;;;;;;16.74;100.00;95615.31;5042998;28;20121;-75
2022/09/14 06:56:38;;;;;;;0.00;0.00;;;;;;;16.83;100.00;95609.94;5056228;28;20043;-76
2022/09/14 06:59:08;;;;;;;0.00;0.00;;;;;;;16.97;100.00;95608.78;5055087;28;20041;-76
2022/09/14 07:01:34;;;;;;;0.10;0.10;;;;;;;17.04;100.00;95610.22;5041104;28;20039;-75
2022/09/14 07:04:00;;;;;;;0.08;0.08;;;;;;;17.14;100.00;95601.88;5060470;28;20040;-75
2022/09/14 07:06:28;;;;;;;0.00;0.00;;;;;;;17.22;100.00;95607.31;5059755;28;20036;-75
2022/09/14 07:08:54;;;;;;;0.00;0.00;;;;;;;17.17;100.00;95601.22;5029143;28;20041;-76
2022/09/14 07:11:24;;;;;;;0.00;0.00;;;;;;;17.28;100.00;95597.16;5042315;28;20565;-75
2022/09/14 07:13:51;;;;;;;0.00;0.00;;;;;;;17.30;100.00;95599.53;5047632;28;20494;-76
2022/09/14 07:16:17;;;;;;;0.10;0.10;;;;;;;17.33;100.00;95605.13;5057740;28;20037;-76
2022/09/14 07:18:43;;;;;;;0.10;0.10;;;;;;;17.38;100.00;95601.50;5057657;28;20200;-76
2022/09/14 07:21:15;;;;;;;0.10;0.10;;;;;;;17.36;100.00;95599.09;5057642;28;20032;-75
2022/09/14 07:23:43;;;;;;;0.10;0.10;;;;;;;17.26;100.00;95596.66;5055755;28;20420;-76
2022/09/14 07:26:13;;;;;;;0.00;0.00;;;;;;;17.14;100.00;95596.44;5055425;28;20060;-76
2022/09/14 07:28:43;;;;;;;0.00;0.00;;;;;;;17.21;100.00;95594.09;5036147;28;20132;-76
2022/09/14 07:31:30;;;;;;;0.03;0.03;;;;;;;17.26;100.00;95585.84;5003356;28;20051;-76
2022/09/14 07:33:59;;;;;;;0.10;0.10;;;;;;;17.17;100.00;95582.31;5041133;28;20025;-76
2022/09/14 07:36:26;;;;;;;0.10;0.10;;;;;;;17.38;100.00;95586.06;5034610;28;20043;-76
2022/09/14 07:38:52;;;;;;;0.00;0.00;;;;;;;17.49;100.00;95589.28;5057400;28;20043;-77
2022/09/14 07:41:22;;;;;;;0.00;0.00;;;;;;;17.29;100.00;95593.34;5045616;28;20036;-76
2022/09/14 07:43:52;;;;;;;0.05;0.05;;;;;;;17.18;100.00;95600.13;5057525;28;20040;-76
2022/09/14 07:46:18;;;;;;;0.00;0.00;;;;;;;17.19;100.00;95596.31;5055222;28;20293;-76
2022/09/14 07:48:44;;;;;;;0.10;0.10;;;;;;;17.21;100.00;95594.09;5058641;28;20304;-76
2022/09/14 07:51:10;;;;;;;0.10;0.10;;;;;;;17.26;100.00;95586.63;5057402;28;20029;-77
2022/09/14 07:53:44;;;;;;;0.10;0.10;;;;;;;17.41;100.00;95573.81;5030160;28;20024;-77
2022/09/14 07:56:11;;;;;;;0.10;0.00;;;;;;;17.35;100.00;95567.75;5040598;28;20078;-77
2022/09/14 07:58:37;;;;;;;0.08;0.08;;;;;;;17.46;100.00;95566.38;5056959;28;20077;-77
2022/09/14 08:01:14;;;;;;;0.10;0.10;;;;;;;17.38;100.00;95567.13;5057583;28;20699;-77
2022/09/14 08:03:44;;;;;;;0.08;0.08;;;;;;;17.27;100.00;95584.72;5041987;28;20025;-77
2022/09/14 08:06:16;;;;;;;0.08;0.08;;;;;;;17.24;100.00;95555.63;5058221;28;20430;-77
2022/09/14 08:08:44;;;;;;;0.10;0.10;;;;;;;17.41;100.00;95566.50;5038566;28;20470;-77
2022/09/14 08:11:18;;;;;;;0.00;0.00;;;;;;;17.49;100.00;95562.22;5054771;28;20098;-77
2022/09/14 08:13:48;;;;;;;0.00;0.00;;;;;;;17.48;100.00;95572.25;5055357;28;20400;-77
2022/09/14 08:16:18;;;;;;;0.10;0.10;;;;;;;17.44;100.00;95570.50;5059685;28;20055;-77
2022/09/14 08:18:44;;;;;;;0.00;0.00;;;;;;;17.66;100.00;95567.69;5038378;28;20142;-77
2022/09/14 08:21:16;;;;;;;0.10;0.10;;;;;;;17.68;100.00;95578.19;5045112;28;20535;-77
2022/09/14 08:23:43;;;;;;;0.00;0.00;;;;;;;17.38;100.00;95586.06;5053628;28;20044;-77
2022/09/14 08:26:12;;;;;;;0.00;0.00;;;;;;;17.32;100.00;95590.00;5056639;28;20028;-77
2022/09/14 08:28:38;;;;;;;0.00;0.00;;;;;;;17.28;100.00;95589.06;5039261;28;20041;-77
2022/09/14 08:31:20;;;;;;;0.10;0.10;;;;;;;17.20;100.00;95587.09;5026011;28;20045;-77
2022/09/14 08:33:55;;;;;;;0.00;0.00;;;;;;;17.17;100.00;95590.41;5037760;28;20417;-77
2022/09/14 08:36:22;;;;;;;0.00;0.00;;;;;;;17.25;100.00;95590.44;5057600;28;20033;-77
2022/09/14 08:38:47;;;;;;;0.00;0.00;;;;;;;17.12;100.00;95588.66;5056268;28;20376;-77
2022/09/14 08:41:39;;;;;;;0.00;0.00;;;;;;;17.23;100.00;95594.59;5039123;28;20036;-77
2022/09/14 08:44:10;;;;;;;0.00;0.00;;;;;;;17.36;100.00;95598.31;5057195;28;20029;-77
2022/09/14 08:46:52;;;;;;;0.03;0.03;;;;;;;17.28;100.00;95599.88;5055675;28;20064;-77
2022/09/14 08:49:38;;;;;;;0.10;0.10;;;;;;;17.30;100.00;95603.03;5051392;28;20142;-77
2022/09/14 08:52:04;;;;;;;0.00;0.00;;;;;;;17.19;100.00;95610.59;5055427;28;20296;-76
2022/09/14 08:54:36;;;;;;;0.00;0.00;;;;;;;17.05;100.00;95612.63;5055953;28;20071;-76
2022/09/14 08:57:12;;;;;;;0.00;0.00;;;;;;;16.99;100.00;95614.66;5054803;28;20036;-76
2022/09/14 08:59:50;;;;;;;0.00;0.00;;;;;;;17.11;100.00;95615.97;5053755;28;20523;-76
2022/09/14 09:02:26;;;;;;;0.10;0.10;;;;;;;17.17;100.00;95606.63;5056118;28;20053;-76
2022/09/14 09:05:11;;;;;;;0.00;0.00;;;;;;;16.98;100.00;95621.16;5054010;28;20481;-76
2022/09/14 09:08:00;;;;;;;0.00;0.00;;;;;;;17.14;100.00;95610.75;5055259;28;20040;-76
2022/09/14 09:10:27;;;;;;;0.08;0.08;;;;;;;17.14;100.00;95594.53;5054293;28;20118;-76
2022/09/14 09:12:58;;;;;;;0.00;0.00;;;;;;;17.11;100.00;95595.16;5040772;28;20065;-77
2022/09/14 09:15:35;;;;;;;0.10;0.10;;;;;;;17.04;100.00;95604.81;5057013;28;20517;-76
2022/09/14 09:18:07;;;;;;;0.00;0.00;;;;;;;17.10;100.00;95615.19;5056674;28;20685;-77
2022/09/14 09:20:48;;;;;;;0.00;0.00;;;;;;;17.17;100.00;95609.34;5054446;28;20382;-76
2022/09/14 09:23:14;;;;;;;0.10;0.10;;;;;;;17.15;100.00;95612.34;5055810;28;20122;-76
2022/09/14 09:26:03;;;;;;;0.05;0.05;;;;;;;16.91;100.00;95601.09;5056798;28;20490;-77
2022/09/14 09:28:30;;;;;;;0.00;0.00;;;;;;;17.18;100.00;95594.72;5051975;28;20054;-77
2022/09/14 09:31:03;;;;;;;0.00;0.00;;;;;;;17.26;100.00;95585.84;5059941;28;20536;-78
2022/09/14 09:33:49;;;;;;;0.10;0.10;;;;;;;17.27;100.00;95573.91;5043793;28;20044;-78
2022/09/14 09:36:19;;;;;;;0.00;0.00;;;;;;;17.47;100.00;95580.69;5040329;28;20079;-76
2022/09/14 09:38:44;;;;;;;0.10;0.10;;;;;;;17.45;100.00;95591.81;5038724;28;20115;-75
2022/09/14 09:41:21;;;;;;;0.10;0.10;;;;;;;17.42;100.00;95597.03;5024312;28;20297;-76
2022/09/14 09:44:08;;;;;;;0.10;0.10;;;;;;;17.19;100.00;95601.72;5013439;28;20051;-76
2022/09/14 09:46:52;;;;;;;0.10;0.10;;;;;;;17.16;100.00;95597.72;5042368;28;20036;-77
2022/09/14 09:49:25;;;;;;;0.10;0.10;;;;;;;17.16;100.00;95599.63;5061632;28;20397;-77
2022/09/14 09:51:52;;;;;;;0.00;0.00;;;;;;;17.27;100.00;95593.66;5057380;28;20048;-76
2022/09/14 09:54:23;;;;;;;0.00;0.00;;;;;;;17.55;100.00;95593.44;5056421;28;20513;-77
2022/09/14 09:56:55;;;;;;;0.10;0.10;;;;;;;17.52;100.00;95588.66;5056930;28;20455;-77
2022/09/14 09:59:30;;;;;;;0.00;0.00;;;;;;;17.53;100.00;95582.94;5042443;28;20105;-77
2022/09/14 10:02:12;;;;;;;0.00;0.00;;;;;;;17.91;100.00;95581.63;5059386;28;20483;-77
2022/09/14 10:04:55;;;;;;;0.03;0.03;;;;;;;18.01;100.00;95565.88;5060246;28;20427;-77
2022/09/14 10:07:22;;;;;;;0.08;0.08;;;;;;;18.04;100.00;95562.50;5060395;28;20035;-77
2022/09/14 10:10:21;;;;;;;0.10;0.10;;;;;;;18.03;100.00;95560.94;5041567;28;20400;-77
2022/09/14 10:12:50;;;;;;;0.05;0.05;;;;;;;18.31;100.00;95538.97;5042073;28;20047;-77
2022/09/14 10:15:19;;;;;;;0.10;0.10;;;;;;;18.45;100.00;95536.09;5061297;28;20232;-75
2022/09/14 10:17:55;;;;;;;0.08;0.08;;;;;;;18.45;100.00;95534.19;5043702;28;20037;-76
2022/09/14 10:20:23;;;;;;;0.00;0.00;;;;;;;18.47;100.00;95525.72;5057648;28;20158;-76
2022/09/14 10:22:49;;;;;;;0.10;0.10;;;;;;;18.41;100.00;95529.72;5045123;28;20651;-77
2022/09/14 10:25:15;;;;;;;0.08;0.08;;;;;;;18.45;100.00;95526.06;5040510;28;20114;-76
2022/09/14 10:27:51;;;;;;;0.00;0.00;;;;;;;18.23;100.00;95529.72;5039842;28;20115;-77
2022/09/14 10:30:28;;;;;;;0.00;0.00;;;;;;;18.42;100.00;95529.38;5056802;28;20035;-76
2022/09/14 10:33:02;;;;;;;0.00;0.00;;;;;;;18.22;100.00;95543.59;4690967;28;10001146;-76
2022/09/14 10:35:44;;;;;;;0.08;0.08;;;;;;;17.99;100.00;95543.75;4668642;28;10000134;-76
2022/09/14 10:38:29;;;;;;;0.10;0.10;;;;;;;17.90;100.00;95556.47;5029082;28;20143;-77
2022/09/14 10:41:33;;;;;;;0.00;0.00;;;;;;;17.96;100.00;95544.38;5058387;28;20099;-77
2022/09/14 10:44:27;;;;;;;0.00;0.00;;;;;;;18.09;100.00;95539.91;5058437;28;20047;-76
2022/09/14 10:47:05;;;;;;;0.03;0.03;;;;;;;18.03;100.00;95541.97;5037062;28;20106;-76
2022/09/14 10:49:36;;;;;;;0.00;0.00;;;;;;;17.94;100.00;95535.78;5057865;28;20043;-77
2022/09/14 10:52:16;;;;;;;0.00;0.00;;;;;;;17.94;100.00;95545.81;5055829;28;20048;-76
2022/09/14 10:55:03;;;;;;;0.08;0.08;;;;;;;17.64;100.00;95547.47;5040271;28;20036;-76
2022/09/14 10:58:01;;;;;;;0.00;0.00;;;;;;;17.65;100.00;95539.03;5057499;28;20036;-76
2022/09/14 11:00:30;;;;;;;0.00;0.00;;;;;;;17.74;100.00;95539.91;5051740;28;20049;-76
2022/09/14 11:03:39;;;;;;;0.17;0.10;;;;;;;17.86;100.00;95520.31;5036408;28;20107;-76
2022/09/14 11:06:07;;;;;;;0.00;0.00;;;;;;;17.94;100.00;95519.53;5024301;28;20054;-76
2022/09/14 11:08:48;;;;;;;0.10;0.10;;;;;;;17.94;100.00;95519.53;5024890;28;20893;-76
2022/09/14 11:11:44;;;;;;;0.10;0.10;;;;;;;18.01;100.00;95521.78;5040421;28;20055;-76
2022/09/14 11:14:33;;;;;;;0.00;0.00;;;;;;;18.15;100.00;95521.63;5020035;28;20044;-77
2022/09/14 11:17:11;;;;;;;0.00;0.00;;;;;;;18.01;100.00;95538.81;5055528;28;20044;-77
2022/09/14 11:19:47;;;;;;;0.00;0.00;;;;;;;17.83;100.00;95545.31;5057396;28;20043;-77
2022/09/14 11:22:24;;;;;;;0.00;0.00;;;;;;;17.85;100.00;95540.38;5025213;28;20056;-77
2022/09/14 11:25:02;;;;;;;0.00;0.00;;;;;;;17.87;100.00;95529.25;5041696;28;20191;-77
2022/09/14 11:27:34;;;;;;;0.00;0.00;;;;;;;17.87;100.00;95527.31;5040546;28;20040;-77
2022/09/14 11:30:27;;;;;;;0.00;0.00;;;;;;;17.86;100.00;95516.81;5055711;28;20045;-77
2022/09/14 11:33:06;;;;;;;0.10;0.10;;;;;;;17.91;100.00;95487.72;5032964;28;20048;-77
2022/09/14 11:36:05;;;;;;;0.00;0.00;;;;;;;17.92;100.00;95497.41;5048144;28;20043;-77
2022/09/14 11:38:40;;;;;;;0.05;0.05;;;;;;;17.90;100.00;95515.88;5043141;28;20040;-77
2022/09/14 11:41:20;;;;;;;0.00;0.00;;;;;;;17.82;100.00;95522.09;5041529;28;20041;-77
2022/09/14 11:44:07;;;;;;;0.00;0.00;;;;;;;17.76;100.00;95539.56;5040563;28;20028;-77
2022/09/14 11:46:38;;;;;;;0.00;0.00;;;;;;;17.83;100.00;95539.13;5008987;28;20411;-77
2022/09/14 11:49:43;;;;;;;0.10;0.10;;;;;;;18.06;100.00;95533.25;5042859;28;20036;-77